Northumberland Strait: Past 24 Hour Conditions

 

Charlottetown Airport

09:00 AM ADT 24 April 2014
This table is a summary of hourly weather conditions for the past 24 hours.
Date / Time
(ADT)
Wind(knots) Conditions Visibility(km) Pressure(kPa) Air tempC) Relative humidity(%) Dew pointC)
24 April 2014
9:00 ENE 16 Light Rain 10 99.7 3 95 3
8:00 ENE 12 gust 18 Light Rain 10 99.7 3 96 3
7:00 E 11 gust 17 Light Rainshower 16 99.6 4 95 3
6:00 E 14 gust 20 Light Rainshower 16 99.6 4 94 3
5:00 E 13 gust 22 Light Rainshower 19 99.6 5 94 4
4:00 E 11 gust 20 Light Rainshower 24 99.6 5 93 4
3:00 E 13 gust 19 Cloudy 24 99.7 5 91 4
2:00 ESE 12 gust 22 Cloudy 24 99.8 5 91 4
1:00 E 13 Cloudy 24 99.8 5 92 4
0:00 ESE 12 gust 18 Cloudy 24 99.8 6 91 4
23 April 2014
23:00 ESE 13 gust 20 Cloudy 24 99.9 6 90 5
22:00 ESE 14 gust 20 Cloudy 24 99.9 7 91 5
21:00 ESE 17 gust 25 Light Drizzle 24 99.9 8 90 6
20:00 ESE 14 Light Drizzle 24 99.9 8 95 8
19:00 E 11 Light Rainshower 13 99.9 9 93 8
18:00 E 10 Mostly Cloudy 24 99.9 9 88 7
17:00 ESE 9 Light Rainshower 10 100.0 9 95 8
16:00 ESE 5 Cloudy 19 100.0 11 82 8
15:00 ESE 9 Cloudy 24 100.0 10 83 8
14:00 SE 5 Mostly Cloudy 19 100.0 10 86 8
13:00 ESE 11 Light Drizzle 19 100.1 10 82 7
12:00 SE 11 Mostly Cloudy 24 100.1 11 76 7
11:00 ESE 12 Partly Cloudy 24 100.1 11 74 7
10:00 SE 10 Cloudy 24 100.2 10 79 6
9:00 SE 7 Cloudy 19 100.2 8 87 6
 
Map of Atlantic - Newfoundland marine weather areas Southwestern Grand Banks - 44138 Banquereau - 44139 Tail of the Bank - 44140 Nickerson Bank - 44251 Northeast Burgeo Bank - 44255 Blanc-Sablon Airport Cap Whittle Chevery Natashquan Airport Heath Point Miscou Island Grand Étang Ingonish Beach North Mountain St.Paul Island J.A. Douglas McCurdy Sydney Airport Charlottetown Airport East Point North Cape Argentia Bonavista Burgeo Cape Race Corner Brook Daniel's Harbour Englee Ferolle Point La Scie Port aux Basques Rocky Harbour Sagona Island St. Anthony Airport St. John's Int'l Airport St. Lawrence Stephenville Airport Twillingate Winterland Wreckhouse Cartwright Airport Mary's Harbour Grates Cove Pool's Island Marticot Island Long Pond Îles de la Madeleine Airport
Legend: buoyBuoy land stationLand Station